sensor_id;sensor_type;location;lat;lon;timestamp;P1;durP1;ratioP1;P2;durP2;ratioP2
40122;SDS011;25832;45.490;4.912;2023-04-29T00:01:25;5.15;;;2.40;;
40122;SDS011;25832;45.490;4.912;2023-04-29T00:03:51;6.72;;;2.08;;
40122;SDS011;25832;45.490;4.912;2023-04-29T00:06:17;5.47;;;2.20;;
40122;SDS011;25832;45.490;4.912;2023-04-29T00:08:43;3.40;;;2.25;;
40122;SDS011;25832;45.490;4.912;2023-04-29T00:11:08;3.28;;;2.30;;
40122;SDS011;25832;45.490;4.912;2023-04-29T00:13:35;3.33;;;2.30;;
40122;SDS011;25832;45.490;4.912;2023-04-29T00:16:03;3.65;;;2.25;;
40122;SDS011;25832;45.490;4.912;2023-04-29T00:18:29;7.60;;;2.50;;
40122;SDS011;25832;45.490;4.912;2023-04-29T00:20:56;3.80;;;2.22;;
40122;SDS011;25832;45.490;4.912;2023-04-29T00:23:22;3.72;;;1.92;;
40122;SDS011;25832;45.490;4.912;2023-04-29T00:25:47;6.45;;;2.15;;
40122;SDS011;25832;45.490;4.912;2023-04-29T00:28:13;3.30;;;2.40;;
40122;SDS011;25832;45.490;4.912;2023-04-29T00:30:38;3.97;;;2.30;;
40122;SDS011;25832;45.490;4.912;2023-04-29T00:33:04;5.25;;;2.60;;
40122;SDS011;25832;45.490;4.912;2023-04-29T00:35:30;4.68;;;2.58;;
40122;SDS011;25832;45.490;4.912;2023-04-29T00:37:56;3.33;;;2.35;;
40122;SDS011;25832;45.490;4.912;2023-04-29T00:40:22;3.72;;;2.35;;
40122;SDS011;25832;45.490;4.912;2023-04-29T00:42:47;6.75;;;3.08;;
40122;SDS011;25832;45.490;4.912;2023-04-29T00:45:13;3.67;;;2.28;;
40122;SDS011;25832;45.490;4.912;2023-04-29T00:47:39;4.65;;;2.33;;
40122;SDS011;25832;45.490;4.912;2023-04-29T00:50:06;4.70;;;2.00;;
40122;SDS011;25832;45.490;4.912;2023-04-29T00:52:33;6.28;;;2.53;;
40122;SDS011;25832;45.490;4.912;2023-04-29T00:54:59;4.10;;;2.22;;
40122;SDS011;25832;45.490;4.912;2023-04-29T00:57:25;4.97;;;2.20;;
40122;SDS011;25832;45.490;4.912;2023-04-29T00:59:56;6.10;;;2.33;;
40122;SDS011;25832;45.490;4.912;2023-04-29T01:02:23;2.67;;;1.60;;
40122;SDS011;25832;45.490;4.912;2023-04-29T01:04:50;4.72;;;2.10;;
40122;SDS011;25832;45.490;4.912;2023-04-29T01:07:17;3.63;;;2.00;;
40122;SDS011;25832;45.490;4.912;2023-04-29T01:12:46;5.07;;;2.40;;
40122;SDS011;25832;45.490;4.912;2023-04-29T01:15:27;6.63;;;2.22;;
40122;SDS011;25832;45.490;4.912;2023-04-29T01:17:59;2.65;;;1.83;;
40122;SDS011;25832;45.490;4.912;2023-04-29T01:20:48;2.55;;;1.83;;
40122;SDS011;25832;45.490;4.912;2023-04-29T01:23:14;4.10;;;2.33;;
40122;SDS011;25832;45.490;4.912;2023-04-29T01:25:40;2.90;;;1.90;;
40122;SDS011;25832;45.490;4.912;2023-04-29T01:28:10;3.67;;;2.10;;
40122;SDS011;25832;45.490;4.912;2023-04-29T01:44:48;4.53;;;2.08;;
40122;SDS011;25832;45.490;4.912;2023-04-29T01:47:17;2.85;;;1.75;;
40122;SDS011;25832;45.490;4.912;2023-04-29T01:49:43;3.08;;;1.77;;
40122;SDS011;25832;45.490;4.912;2023-04-29T01:52:10;8.70;;;2.17;;
40122;SDS011;25832;45.490;4.912;2023-04-29T01:54:37;3.70;;;2.30;;
40122;SDS011;25832;45.490;4.912;2023-04-29T01:57:03;5.22;;;3.40;;
40122;SDS011;25832;45.490;4.912;2023-04-29T01:59:29;3.55;;;1.92;;
40122;SDS011;25832;45.490;4.912;2023-04-29T02:01:54;4.28;;;2.22;;
40122;SDS011;25832;45.490;4.912;2023-04-29T02:04:22;8.38;;;2.97;;
40122;SDS011;25832;45.490;4.912;2023-04-29T02:06:49;6.80;;;2.95;;
40122;SDS011;25832;45.490;4.912;2023-04-29T02:09:16;6.00;;;2.70;;
40122;SDS011;25832;45.490;4.912;2023-04-29T02:11:42;7.35;;;2.88;;
40122;SDS011;25832;45.490;4.912;2023-04-29T02:14:08;6.07;;;3.08;;
40122;SDS011;25832;45.490;4.912;2023-04-29T02:16:33;6.22;;;2.50;;
40122;SDS011;25832;45.490;4.912;2023-04-29T02:18:59;4.45;;;2.33;;
40122;SDS011;25832;45.490;4.912;2023-04-29T02:21:25;6.93;;;3.25;;
40122;SDS011;25832;45.490;4.912;2023-04-29T02:23:51;3.55;;;2.78;;
40122;SDS011;25832;45.490;4.912;2023-04-29T02:26:18;6.28;;;2.60;;
40122;SDS011;25832;45.490;4.912;2023-04-29T02:28:44;7.55;;;3.58;;
40122;SDS011;25832;45.490;4.912;2023-04-29T02:31:09;7.85;;;3.13;;
40122;SDS011;25832;45.490;4.912;2023-04-29T02:33:35;8.45;;;4.05;;
40122;SDS011;25832;45.490;4.912;2023-04-29T02:36:01;6.45;;;3.22;;
40122;SDS011;25832;45.490;4.912;2023-04-29T02:38:26;9.65;;;3.30;;
40122;SDS011;25832;45.490;4.912;2023-04-29T02:40:52;7.15;;;3.58;;
40122;SDS011;25832;45.490;4.912;2023-04-29T02:43:18;10.55;;;3.50;;
40122;SDS011;25832;45.490;4.912;2023-04-29T02:45:43;6.55;;;3.03;;
40122;SDS011;25832;45.490;4.912;2023-04-29T02:48:09;10.07;;;3.25;;
40122;SDS011;25832;45.490;4.912;2023-04-29T02:50:34;8.30;;;3.50;;
40122;SDS011;25832;45.490;4.912;2023-04-29T02:53:00;5.47;;;3.13;;
40122;SDS011;25832;45.490;4.912;2023-04-29T02:55:26;8.35;;;3.30;;
40122;SDS011;25832;45.490;4.912;2023-04-29T02:57:51;6.35;;;3.50;;
40122;SDS011;25832;45.490;4.912;2023-04-29T03:00:17;10.35;;;3.65;;
40122;SDS011;25832;45.490;4.912;2023-04-29T03:02:43;10.13;;;3.63;;
40122;SDS011;25832;45.490;4.912;2023-04-29T03:05:09;7.13;;;4.10;;
40122;SDS011;25832;45.490;4.912;2023-04-29T03:07:35;9.70;;;4.90;;
40122;SDS011;25832;45.490;4.912;2023-04-29T03:10:01;8.45;;;5.18;;
40122;SDS011;25832;45.490;4.912;2023-04-29T03:12:26;8.90;;;5.22;;
40122;SDS011;25832;45.490;4.912;2023-04-29T03:14:52;8.15;;;4.60;;
40122;SDS011;25832;45.490;4.912;2023-04-29T03:17:18;9.57;;;5.60;;
40122;SDS011;25832;45.490;4.912;2023-04-29T03:19:43;11.20;;;5.03;;
40122;SDS011;25832;45.490;4.912;2023-04-29T03:22:09;13.07;;;6.40;;
40122;SDS011;25832;45.490;4.912;2023-04-29T03:24:36;8.73;;;5.28;;
40122;SDS011;25832;45.490;4.912;2023-04-29T03:27:02;8.05;;;5.28;;
40122;SDS011;25832;45.490;4.912;2023-04-29T03:29:28;9.48;;;5.47;;
40122;SDS011;25832;45.490;4.912;2023-04-29T03:31:57;11.10;;;5.07;;
40122;SDS011;25832;45.490;4.912;2023-04-29T03:34:23;9.40;;;4.78;;
40122;SDS011;25832;45.490;4.912;2023-04-29T03:36:49;7.93;;;4.88;;
40122;SDS011;25832;45.490;4.912;2023-04-29T03:39:15;8.48;;;4.88;;
40122;SDS011;25832;45.490;4.912;2023-04-29T03:41:42;10.23;;;5.20;;
40122;SDS011;25832;45.490;4.912;2023-04-29T03:44:07;8.90;;;5.07;;
40122;SDS011;25832;45.490;4.912;2023-04-29T03:46:33;7.78;;;3.80;;
40122;SDS011;25832;45.490;4.912;2023-04-29T03:48:59;8.38;;;3.97;;
40122;SDS011;25832;45.490;4.912;2023-04-29T03:51:25;7.80;;;4.78;;
40122;SDS011;25832;45.490;4.912;2023-04-29T03:53:51;7.78;;;4.72;;
40122;SDS011;25832;45.490;4.912;2023-04-29T03:56:20;7.85;;;4.28;;
40122;SDS011;25832;45.490;4.912;2023-04-29T03:58:47;9.05;;;3.55;;
40122;SDS011;25832;45.490;4.912;2023-04-29T04:01:13;10.68;;;4.30;;
40122;SDS011;25832;45.490;4.912;2023-04-29T04:03:39;7.45;;;4.15;;
40122;SDS011;25832;45.490;4.912;2023-04-29T04:06:07;7.10;;;4.25;;
40122;SDS011;25832;45.490;4.912;2023-04-29T04:08:33;5.47;;;3.20;;
40122;SDS011;25832;45.490;4.912;2023-04-29T04:10:58;6.07;;;4.05;;
40122;SDS011;25832;45.490;4.912;2023-04-29T04:13:27;7.88;;;4.15;;
40122;SDS011;25832;45.490;4.912;2023-04-29T04:15:53;5.30;;;3.35;;
40122;SDS011;25832;45.490;4.912;2023-04-29T04:18:19;5.13;;;3.58;;
40122;SDS011;25832;45.490;4.912;2023-04-29T04:20:45;5.00;;;3.78;;
40122;SDS011;25832;45.490;4.912;2023-04-29T04:23:11;5.75;;;3.75;;
40122;SDS011;25832;45.490;4.912;2023-04-29T04:25:37;4.97;;;3.22;;
40122;SDS011;25832;45.490;4.912;2023-04-29T04:28:03;5.05;;;3.20;;
40122;SDS011;25832;45.490;4.912;2023-04-29T04:30:28;4.30;;;3.35;;
40122;SDS011;25832;45.490;4.912;2023-04-29T04:32:54;7.03;;;3.50;;
40122;SDS011;25832;45.490;4.912;2023-04-29T04:35:20;3.58;;;3.05;;
40122;SDS011;25832;45.490;4.912;2023-04-29T04:37:46;5.53;;;3.35;;
40122;SDS011;25832;45.490;4.912;2023-04-29T04:40:11;5.85;;;3.13;;
40122;SDS011;25832;45.490;4.912;2023-04-29T04:42:37;6.45;;;3.03;;
40122;SDS011;25832;45.490;4.912;2023-04-29T04:45:03;5.30;;;3.63;;
40122;SDS011;25832;45.490;4.912;2023-04-29T04:47:30;9.60;;;3.72;;
40122;SDS011;25832;45.490;4.912;2023-04-29T04:49:55;6.38;;;3.25;;
40122;SDS011;25832;45.490;4.912;2023-04-29T04:52:21;5.68;;;3.45;;
40122;SDS011;25832;45.490;4.912;2023-04-29T04:54:47;7.47;;;3.90;;
40122;SDS011;25832;45.490;4.912;2023-04-29T04:57:12;4.82;;;4.20;;
40122;SDS011;25832;45.490;4.912;2023-04-29T04:59:38;5.82;;;4.07;;
40122;SDS011;25832;45.490;4.912;2023-04-29T05:02:04;7.38;;;4.45;;
40122;SDS011;25832;45.490;4.912;2023-04-29T05:04:30;7.93;;;4.18;;
40122;SDS011;25832;45.490;4.912;2023-04-29T05:06:55;5.97;;;4.85;;
40122;SDS011;25832;45.490;4.912;2023-04-29T05:09:21;7.05;;;5.20;;
40122;SDS011;25832;45.490;4.912;2023-04-29T05:11:47;8.90;;;4.43;;
40122;SDS011;25832;45.490;4.912;2023-04-29T05:14:13;6.38;;;4.43;;
40122;SDS011;25832;45.490;4.912;2023-04-29T05:16:38;5.72;;;3.92;;
40122;SDS011;25832;45.490;4.912;2023-04-29T05:19:04;5.43;;;3.72;;
40122;SDS011;25832;45.490;4.912;2023-04-29T05:21:30;10.15;;;4.97;;
40122;SDS011;25832;45.490;4.912;2023-04-29T05:23:55;5.88;;;3.53;;
40122;SDS011;25832;45.490;4.912;2023-04-29T05:26:21;10.95;;;4.07;;
40122;SDS011;25832;45.490;4.912;2023-04-29T05:28:47;7.45;;;4.03;;
40122;SDS011;25832;45.490;4.912;2023-04-29T05:31:13;6.65;;;4.32;;
40122;SDS011;25832;45.490;4.912;2023-04-29T05:33:39;8.30;;;4.30;;
40122;SDS011;25832;45.490;4.912;2023-04-29T05:36:05;6.78;;;5.00;;
40122;SDS011;25832;45.490;4.912;2023-04-29T05:38:31;7.13;;;5.55;;
40122;SDS011;25832;45.490;4.912;2023-04-29T05:40:57;9.27;;;6.10;;
40122;SDS011;25832;45.490;4.912;2023-04-29T05:43:23;12.15;;;7.38;;
40122;SDS011;25832;45.490;4.912;2023-04-29T05:45:49;9.73;;;6.95;;
40122;SDS011;25832;45.490;4.912;2023-04-29T05:48:15;9.07;;;6.75;;
40122;SDS011;25832;45.490;4.912;2023-04-29T05:50:40;15.63;;;10.35;;
40122;SDS011;25832;45.490;4.912;2023-04-29T05:53:06;16.52;;;9.30;;
40122;SDS011;25832;45.490;4.912;2023-04-29T05:55:32;9.65;;;6.30;;
40122;SDS011;25832;45.490;4.912;2023-04-29T05:57:59;14.75;;;6.80;;
40122;SDS011;25832;45.490;4.912;2023-04-29T06:00:24;12.10;;;7.50;;
40122;SDS011;25832;45.490;4.912;2023-04-29T06:02:50;15.27;;;7.65;;
40122;SDS011;25832;45.490;4.912;2023-04-29T06:05:15;15.23;;;6.93;;
40122;SDS011;25832;45.490;4.912;2023-04-29T06:07:41;10.85;;;5.68;;
40122;SDS011;25832;45.490;4.912;2023-04-29T06:10:08;23.20;;;8.30;;
40122;SDS011;25832;45.490;4.912;2023-04-29T06:12:34;19.38;;;7.53;;
40122;SDS011;25832;45.490;4.912;2023-04-29T06:15:00;15.38;;;7.85;;
40122;SDS011;25832;45.490;4.912;2023-04-29T06:17:26;11.73;;;7.50;;
40122;SDS011;25832;45.490;4.912;2023-04-29T06:19:53;11.07;;;8.30;;
40122;SDS011;25832;45.490;4.912;2023-04-29T06:22:20;12.55;;;7.57;;
40122;SDS011;25832;45.490;4.912;2023-04-29T06:24:45;14.65;;;8.27;;
40122;SDS011;25832;45.490;4.912;2023-04-29T06:27:13;9.07;;;6.18;;
40122;SDS011;25832;45.490;4.912;2023-04-29T06:29:39;7.72;;;5.93;;
40122;SDS011;25832;45.490;4.912;2023-04-29T06:32:06;10.27;;;6.35;;
40122;SDS011;25832;45.490;4.912;2023-04-29T06:34:32;14.35;;;7.22;;
40122;SDS011;25832;45.490;4.912;2023-04-29T06:36:57;8.95;;;6.72;;
40122;SDS011;25832;45.490;4.912;2023-04-29T06:39:23;10.38;;;7.72;;
40122;SDS011;25832;45.490;4.912;2023-04-29T06:41:49;10.05;;;7.57;;
40122;SDS011;25832;45.490;4.912;2023-04-29T06:44:16;14.35;;;6.70;;
40122;SDS011;25832;45.490;4.912;2023-04-29T06:46:43;10.25;;;6.47;;
40122;SDS011;25832;45.490;4.912;2023-04-29T06:49:09;11.15;;;5.78;;
40122;SDS011;25832;45.490;4.912;2023-04-29T06:51:38;9.10;;;5.85;;
40122;SDS011;25832;45.490;4.912;2023-04-29T06:54:03;10.20;;;6.03;;
40122;SDS011;25832;45.490;4.912;2023-04-29T06:56:29;10.23;;;6.47;;
40122;SDS011;25832;45.490;4.912;2023-04-29T06:58:55;8.68;;;6.03;;
40122;SDS011;25832;45.490;4.912;2023-04-29T07:01:21;12.73;;;5.45;;
40122;SDS011;25832;45.490;4.912;2023-04-29T07:03:46;9.57;;;5.00;;
40122;SDS011;25832;45.490;4.912;2023-04-29T07:06:12;6.07;;;4.57;;
40122;SDS011;25832;45.490;4.912;2023-04-29T07:08:38;7.22;;;4.53;;
40122;SDS011;25832;45.490;4.912;2023-04-29T07:11:03;12.50;;;5.65;;
40122;SDS011;25832;45.490;4.912;2023-04-29T07:13:29;9.40;;;4.25;;
40122;SDS011;25832;45.490;4.912;2023-04-29T07:15:55;5.75;;;3.78;;
40122;SDS011;25832;45.490;4.912;2023-04-29T07:18:21;8.02;;;3.92;;
40122;SDS011;25832;45.490;4.912;2023-04-29T07:20:47;6.47;;;3.97;;
40122;SDS011;25832;45.490;4.912;2023-04-29T07:23:13;10.25;;;4.75;;
40122;SDS011;25832;45.490;4.912;2023-04-29T07:25:39;8.05;;;4.15;;
40122;SDS011;25832;45.490;4.912;2023-04-29T07:28:05;6.15;;;4.05;;
40122;SDS011;25832;45.490;4.912;2023-04-29T07:30:33;8.00;;;4.60;;
40122;SDS011;25832;45.490;4.912;2023-04-29T07:32:58;8.70;;;5.00;;
40122;SDS011;25832;45.490;4.912;2023-04-29T07:35:24;6.05;;;3.78;;
40122;SDS011;25832;45.490;4.912;2023-04-29T07:37:50;5.25;;;3.92;;
40122;SDS011;25832;45.490;4.912;2023-04-29T07:40:16;4.72;;;4.03;;
40122;SDS011;25832;45.490;4.912;2023-04-29T07:42:42;6.85;;;3.92;;
40122;SDS011;25832;45.490;4.912;2023-04-29T07:45:08;8.85;;;3.47;;
40122;SDS011;25832;45.490;4.912;2023-04-29T07:47:34;9.30;;;4.30;;
40122;SDS011;25832;45.490;4.912;2023-04-29T07:50:00;6.60;;;3.47;;
40122;SDS011;25832;45.490;4.912;2023-04-29T07:52:26;7.35;;;3.58;;
40122;SDS011;25832;45.490;4.912;2023-04-29T07:54:52;5.47;;;2.92;;
40122;SDS011;25832;45.490;4.912;2023-04-29T07:57:20;4.43;;;2.85;;
40122;SDS011;25832;45.490;4.912;2023-04-29T07:59:45;5.32;;;2.80;;
40122;SDS011;25832;45.490;4.912;2023-04-29T08:02:11;6.38;;;2.40;;
40122;SDS011;25832;45.490;4.912;2023-04-29T08:04:38;5.55;;;2.60;;
40122;SDS011;25832;45.490;4.912;2023-04-29T08:07:07;4.73;;;3.20;;
40122;SDS011;25832;45.490;4.912;2023-04-29T08:09:33;6.78;;;3.30;;
40122;SDS011;25832;45.490;4.912;2023-04-29T08:11:59;4.80;;;3.55;;
40122;SDS011;25832;45.490;4.912;2023-04-29T08:14:26;6.55;;;3.20;;
40122;SDS011;25832;45.490;4.912;2023-04-29T08:16:51;5.55;;;4.13;;
40122;SDS011;25832;45.490;4.912;2023-04-29T08:19:18;8.15;;;4.32;;
40122;SDS011;25832;45.490;4.912;2023-04-29T08:21:45;6.30;;;3.70;;
40122;SDS011;25832;45.490;4.912;2023-04-29T08:24:11;4.95;;;4.07;;
40122;SDS011;25832;45.490;4.912;2023-04-29T08:26:38;5.70;;;3.85;;
40122;SDS011;25832;45.490;4.912;2023-04-29T08:29:05;4.55;;;3.53;;
40122;SDS011;25832;45.490;4.912;2023-04-29T08:31:30;7.15;;;2.88;;
40122;SDS011;25832;45.490;4.912;2023-04-29T08:33:57;8.25;;;3.70;;
40122;SDS011;25832;45.490;4.912;2023-04-29T08:36:22;8.15;;;4.82;;
40122;SDS011;25832;45.490;4.912;2023-04-29T08:38:48;6.28;;;4.07;;
40122;SDS011;25832;45.490;4.912;2023-04-29T08:41:16;4.35;;;3.53;;
40122;SDS011;25832;45.490;4.912;2023-04-29T08:43:42;13.02;;;4.45;;
40122;SDS011;25832;45.490;4.912;2023-04-29T08:46:08;6.82;;;3.63;;
40122;SDS011;25832;45.490;4.912;2023-04-29T08:48:35;6.35;;;4.38;;
40122;SDS011;25832;45.490;4.912;2023-04-29T08:51:02;7.22;;;4.90;;
40122;SDS011;25832;45.490;4.912;2023-04-29T08:53:28;8.75;;;4.43;;
40122;SDS011;25832;45.490;4.912;2023-04-29T08:55:54;8.13;;;5.38;;
40122;SDS011;25832;45.490;4.912;2023-04-29T08:58:24;9.93;;;7.90;;
40122;SDS011;25832;45.490;4.912;2023-04-29T09:00:52;14.15;;;9.55;;
40122;SDS011;25832;45.490;4.912;2023-04-29T09:03:23;11.70;;;10.18;;
40122;SDS011;25832;45.490;4.912;2023-04-29T09:08:25;17.40;;;12.00;;
40122;SDS011;25832;45.490;4.912;2023-04-29T09:10:52;14.40;;;11.23;;
40122;SDS011;25832;45.490;4.912;2023-04-29T09:13:24;17.60;;;12.45;;
40122;SDS011;25832;45.490;4.912;2023-04-29T09:15:52;18.05;;;14.13;;
40122;SDS011;25832;45.490;4.912;2023-04-29T09:21:27;15.38;;;13.02;;
40122;SDS011;25832;45.490;4.912;2023-04-29T09:23:53;18.02;;;13.75;;
40122;SDS011;25832;45.490;4.912;2023-04-29T09:26:21;16.92;;;12.82;;
40122;SDS011;25832;45.490;4.912;2023-04-29T09:31:33;16.23;;;12.27;;
40122;SDS011;25832;45.490;4.912;2023-04-29T09:34:01;17.25;;;12.35;;
40122;SDS011;25832;45.490;4.912;2023-04-29T09:39:13;16.38;;;11.85;;
40122;SDS011;25832;45.490;4.912;2023-04-29T09:44:21;18.05;;;13.18;;
40122;SDS011;25832;45.490;4.912;2023-04-29T09:46:56;16.48;;;12.30;;
40122;SDS011;25832;45.490;4.912;2023-04-29T09:49:27;20.67;;;13.57;;
40122;SDS011;25832;45.490;4.912;2023-04-29T09:51:59;17.45;;;12.75;;
40122;SDS011;25832;45.490;4.912;2023-04-29T09:54:26;17.92;;;11.82;;
40122;SDS011;25832;45.490;4.912;2023-04-29T09:56:54;18.85;;;12.95;;
40122;SDS011;25832;45.490;4.912;2023-04-29T09:59:21;14.95;;;12.68;;
40122;SDS011;25832;45.490;4.912;2023-04-29T10:01:48;15.88;;;12.18;;
40122;SDS011;25832;45.490;4.912;2023-04-29T10:04:16;16.70;;;12.82;;
40122;SDS011;25832;45.490;4.912;2023-04-29T10:06:44;16.60;;;12.93;;
40122;SDS011;25832;45.490;4.912;2023-04-29T10:09:12;18.23;;;12.55;;
40122;SDS011;25832;45.490;4.912;2023-04-29T10:11:43;16.73;;;12.07;;
40122;SDS011;25832;45.490;4.912;2023-04-29T10:14:13;16.92;;;11.95;;
40122;SDS011;25832;45.490;4.912;2023-04-29T10:19:27;17.02;;;11.63;;
40122;SDS011;25832;45.490;4.912;2023-04-29T10:21:59;16.58;;;11.90;;
40122;SDS011;25832;45.490;4.912;2023-04-29T10:24:43;16.25;;;11.25;;
40122;SDS011;25832;45.490;4.912;2023-04-29T10:27:10;12.65;;;10.80;;
40122;SDS011;25832;45.490;4.912;2023-04-29T10:29:38;13.98;;;10.90;;
40122;SDS011;25832;45.490;4.912;2023-04-29T10:32:08;16.20;;;12.02;;
40122;SDS011;25832;45.490;4.912;2023-04-29T10:34:37;17.08;;;10.55;;
40122;SDS011;25832;45.490;4.912;2023-04-29T10:37:09;12.00;;;9.60;;
40122;SDS011;25832;45.490;4.912;2023-04-29T10:39:41;16.97;;;10.53;;
40122;SDS011;25832;45.490;4.912;2023-04-29T10:42:16;12.13;;;9.85;;
40122;SDS011;25832;45.490;4.912;2023-04-29T10:50:34;14.00;;;8.90;;
40122;SDS011;25832;45.490;4.912;2023-04-29T10:53:04;11.68;;;8.13;;
40122;SDS011;25832;45.490;4.912;2023-04-29T10:55:30;11.52;;;7.63;;
40122;SDS011;25832;45.490;4.912;2023-04-29T10:57:59;10.50;;;6.68;;
40122;SDS011;25832;45.490;4.912;2023-04-29T11:00:28;7.65;;;5.85;;
40122;SDS011;25832;45.490;4.912;2023-04-29T11:02:59;10.52;;;6.90;;
40122;SDS011;25832;45.490;4.912;2023-04-29T11:05:35;7.22;;;5.55;;
40122;SDS011;25832;45.490;4.912;2023-04-29T11:08:14;6.03;;;4.82;;
40122;SDS011;25832;45.490;4.912;2023-04-29T11:10:49;8.45;;;5.60;;
40122;SDS011;25832;45.490;4.912;2023-04-29T11:13:21;8.73;;;6.07;;
40122;SDS011;25832;45.490;4.912;2023-04-29T11:15:50;10.25;;;5.45;;
40122;SDS011;25832;45.490;4.912;2023-04-29T11:18:17;6.70;;;5.20;;
40122;SDS011;25832;45.490;4.912;2023-04-29T11:21:28;7.43;;;5.18;;
40122;SDS011;25832;45.490;4.912;2023-04-29T11:23:28;7.55;;;4.93;;
40122;SDS011;25832;45.490;4.912;2023-04-29T11:25:54;6.03;;;4.65;;
40122;SDS011;25832;45.490;4.912;2023-04-29T11:28:21;6.30;;;5.10;;
40122;SDS011;25832;45.490;4.912;2023-04-29T11:30:51;5.68;;;4.70;;
40122;SDS011;25832;45.490;4.912;2023-04-29T11:33:18;5.78;;;4.05;;
40122;SDS011;25832;45.490;4.912;2023-04-29T11:35:44;6.45;;;4.50;;
40122;SDS011;25832;45.490;4.912;2023-04-29T11:38:11;8.25;;;4.60;;
40122;SDS011;25832;45.490;4.912;2023-04-29T11:40:40;6.65;;;4.97;;
40122;SDS011;25832;45.490;4.912;2023-04-29T11:43:06;4.70;;;3.85;;
40122;SDS011;25832;45.490;4.912;2023-04-29T11:45:34;6.10;;;4.03;;
40122;SDS011;25832;45.490;4.912;2023-04-29T11:48:00;7.13;;;4.15;;
40122;SDS011;25832;45.490;4.912;2023-04-29T11:50:28;6.13;;;3.40;;
40122;SDS011;25832;45.490;4.912;2023-04-29T11:52:56;5.68;;;3.45;;
40122;SDS011;25832;45.490;4.912;2023-04-29T11:55:23;6.60;;;4.10;;
40122;SDS011;25832;45.490;4.912;2023-04-29T11:57:49;6.38;;;3.50;;
40122;SDS011;25832;45.490;4.912;2023-04-29T12:00:16;6.63;;;3.97;;
40122;SDS011;25832;45.490;4.912;2023-04-29T12:02:43;5.18;;;4.13;;
40122;SDS011;25832;45.490;4.912;2023-04-29T12:05:12;6.22;;;3.50;;
40122;SDS011;25832;45.490;4.912;2023-04-29T12:07:39;4.35;;;3.75;;
40122;SDS011;25832;45.490;4.912;2023-04-29T12:10:08;8.45;;;3.88;;
40122;SDS011;25832;45.490;4.912;2023-04-29T12:12:35;4.78;;;3.30;;
40122;SDS011;25832;45.490;4.912;2023-04-29T12:15:04;8.32;;;4.18;;
40122;SDS011;25832;45.490;4.912;2023-04-29T12:17:32;4.85;;;3.35;;
40122;SDS011;25832;45.490;4.912;2023-04-29T12:19:57;6.03;;;3.08;;
40122;SDS011;25832;45.490;4.912;2023-04-29T12:22:29;5.03;;;3.47;;
40122;SDS011;25832;45.490;4.912;2023-04-29T12:24:59;6.35;;;3.80;;
40122;SDS011;25832;45.490;4.912;2023-04-29T12:27:27;5.10;;;3.63;;
40122;SDS011;25832;45.490;4.912;2023-04-29T12:29:53;4.65;;;3.28;;
40122;SDS011;25832;45.490;4.912;2023-04-29T12:32:21;4.95;;;3.75;;
40122;SDS011;25832;45.490;4.912;2023-04-29T12:34:49;3.80;;;3.30;;
40122;SDS011;25832;45.490;4.912;2023-04-29T12:37:16;5.20;;;3.83;;
40122;SDS011;25832;45.490;4.912;2023-04-29T12:39:42;5.65;;;3.50;;
40122;SDS011;25832;45.490;4.912;2023-04-29T12:42:13;6.10;;;4.20;;
40122;SDS011;25832;45.490;4.912;2023-04-29T12:44:41;4.25;;;3.55;;
40122;SDS011;25832;45.490;4.912;2023-04-29T12:47:11;8.15;;;3.72;;
40122;SDS011;25832;45.490;4.912;2023-04-29T12:49:40;7.45;;;3.90;;
40122;SDS011;25832;45.490;4.912;2023-04-29T12:52:07;4.93;;;4.00;;
40122;SDS011;25832;45.490;4.912;2023-04-29T12:54:43;4.65;;;3.33;;
40122;SDS011;25832;45.490;4.912;2023-04-29T12:57:09;5.07;;;3.83;;
40122;SDS011;25832;45.490;4.912;2023-04-29T12:59:35;4.40;;;3.85;;
40122;SDS011;25832;45.490;4.912;2023-04-29T13:02:01;5.82;;;4.03;;
40122;SDS011;25832;45.490;4.912;2023-04-29T13:04:27;5.45;;;4.13;;
40122;SDS011;25832;45.490;4.912;2023-04-29T13:06:53;5.07;;;4.07;;
40122;SDS011;25832;45.490;4.912;2023-04-29T13:09:24;6.75;;;4.35;;
40122;SDS011;25832;45.490;4.912;2023-04-29T13:11:53;4.45;;;3.72;;
40122;SDS011;25832;45.490;4.912;2023-04-29T13:14:19;6.88;;;4.60;;
40122;SDS011;25832;45.490;4.912;2023-04-29T13:16:45;4.22;;;3.80;;
40122;SDS011;25832;45.490;4.912;2023-04-29T13:19:10;4.88;;;3.78;;
40122;SDS011;25832;45.490;4.912;2023-04-29T13:21:37;4.63;;;3.88;;
40122;SDS011;25832;45.490;4.912;2023-04-29T13:24:03;5.20;;;4.03;;
40122;SDS011;25832;45.490;4.912;2023-04-29T13:26:29;6.57;;;4.22;;
40122;SDS011;25832;45.490;4.912;2023-04-29T13:28:55;5.15;;;4.07;;
40122;SDS011;25832;45.490;4.912;2023-04-29T13:31:21;9.98;;;4.32;;
40122;SDS011;25832;45.490;4.912;2023-04-29T13:33:46;4.80;;;3.83;;
40122;SDS011;25832;45.490;4.912;2023-04-29T13:36:12;4.63;;;3.75;;
40122;SDS011;25832;45.490;4.912;2023-04-29T13:38:39;4.57;;;3.50;;
40122;SDS011;25832;45.490;4.912;2023-04-29T13:41:04;7.63;;;3.55;;
40122;SDS011;25832;45.490;4.912;2023-04-29T13:43:30;8.20;;;4.75;;
40122;SDS011;25832;45.490;4.912;2023-04-29T13:45:56;5.55;;;4.47;;
40122;SDS011;25832;45.490;4.912;2023-04-29T13:48:22;5.53;;;3.55;;
40122;SDS011;25832;45.490;4.912;2023-04-29T13:50:48;7.43;;;3.67;;
40122;SDS011;25832;45.490;4.912;2023-04-29T13:53:13;5.85;;;4.53;;
40122;SDS011;25832;45.490;4.912;2023-04-29T13:55:41;5.88;;;4.03;;
40122;SDS011;25832;45.490;4.912;2023-04-29T13:58:06;4.70;;;3.50;;
40122;SDS011;25832;45.490;4.912;2023-04-29T14:00:32;4.40;;;3.75;;
40122;SDS011;25832;45.490;4.912;2023-04-29T14:02:58;7.07;;;4.43;;
40122;SDS011;25832;45.490;4.912;2023-04-29T14:05:24;7.45;;;4.68;;
40122;SDS011;25832;45.490;4.912;2023-04-29T14:07:50;4.45;;;3.95;;
40122;SDS011;25832;45.490;4.912;2023-04-29T14:10:16;6.32;;;4.28;;
40122;SDS011;25832;45.490;4.912;2023-04-29T14:12:42;5.75;;;5.18;;
40122;SDS011;25832;45.490;4.912;2023-04-29T14:15:08;5.03;;;4.05;;
40122;SDS011;25832;45.490;4.912;2023-04-29T14:17:35;5.25;;;3.42;;
40122;SDS011;25832;45.490;4.912;2023-04-29T14:20:01;4.75;;;3.22;;
40122;SDS011;25832;45.490;4.912;2023-04-29T14:22:31;4.75;;;4.10;;
40122;SDS011;25832;45.490;4.912;2023-04-29T14:24:56;4.15;;;2.90;;
40122;SDS011;25832;45.490;4.912;2023-04-29T14:27:22;4.35;;;3.47;;
40122;SDS011;25832;45.490;4.912;2023-04-29T14:29:48;5.20;;;4.15;;
40122;SDS011;25832;45.490;4.912;2023-04-29T14:32:14;7.90;;;4.30;;
40122;SDS011;25832;45.490;4.912;2023-04-29T14:34:40;12.40;;;4.28;;
40122;SDS011;25832;45.490;4.912;2023-04-29T14:37:06;7.50;;;4.10;;
40122;SDS011;25832;45.490;4.912;2023-04-29T14:39:32;6.10;;;4.45;;
40122;SDS011;25832;45.490;4.912;2023-04-29T14:41:58;7.03;;;4.22;;
40122;SDS011;25832;45.490;4.912;2023-04-29T14:44:23;8.95;;;4.57;;
40122;SDS011;25832;45.490;4.912;2023-04-29T14:46:49;4.78;;;4.15;;
40122;SDS011;25832;45.490;4.912;2023-04-29T14:49:15;5.90;;;4.45;;
40122;SDS011;25832;45.490;4.912;2023-04-29T14:51:41;6.65;;;4.80;;
40122;SDS011;25832;45.490;4.912;2023-04-29T14:54:06;5.32;;;4.10;;
40122;SDS011;25832;45.490;4.912;2023-04-29T14:56:33;5.05;;;4.15;;
40122;SDS011;25832;45.490;4.912;2023-04-29T14:59:00;4.47;;;3.92;;
40122;SDS011;25832;45.490;4.912;2023-04-29T15:01:26;5.20;;;3.78;;
40122;SDS011;25832;45.490;4.912;2023-04-29T15:03:52;6.57;;;3.38;;
40122;SDS011;25832;45.490;4.912;2023-04-29T15:06:18;6.47;;;3.33;;
40122;SDS011;25832;45.490;4.912;2023-04-29T15:08:44;6.15;;;2.75;;
40122;SDS011;25832;45.490;4.912;2023-04-29T15:11:10;5.90;;;3.60;;
40122;SDS011;25832;45.490;4.912;2023-04-29T15:13:36;3.65;;;3.03;;
40122;SDS011;25832;45.490;4.912;2023-04-29T15:16:02;5.03;;;2.78;;
40122;SDS011;25832;45.490;4.912;2023-04-29T15:18:28;5.88;;;3.13;;
40122;SDS011;25832;45.490;4.912;2023-04-29T15:20:53;6.18;;;3.15;;